createdAt,value
2022-08-12T00:03:06.547Z,101765.34
2022-08-12T00:13:07.821Z,101769.41
2022-08-12T00:23:09.164Z,101766.41
2022-08-12T00:33:11.988Z,101770.47
2022-08-12T00:43:15.703Z,101777.59
2022-08-12T00:53:17.014Z,101771.75
2022-08-12T01:03:22.094Z,101770.25
2022-08-12T01:13:23.392Z,101770.75
2022-08-12T01:23:24.712Z,101769.25
2022-08-12T01:33:26.011Z,101770.31
2022-08-12T01:43:27.268Z,101768.28
2022-08-12T01:53:28.580Z,101768.03
2022-08-12T02:03:49.824Z,101763.50
2022-08-12T02:13:51.111Z,101761.91
2022-08-12T02:23:54.707Z,101754.63
2022-08-12T02:33:55.999Z,101748.78
2022-08-12T02:43:57.273Z,101744.47
2022-08-12T02:54:05.419Z,101741.44
2022-08-12T03:04:07.358Z,101748.31
2022-08-12T03:14:22.262Z,101747.56
2022-08-12T03:24:23.570Z,101735.63
2022-08-12T03:34:24.851Z,101732.84
2022-08-12T03:44:27.667Z,101723.69
2022-08-12T03:54:28.951Z,101728.50
2022-08-12T04:04:30.217Z,101738.16
2022-08-12T04:14:31.500Z,101735.75
2022-08-12T04:24:32.764Z,101751.66
2022-08-12T04:34:34.134Z,101740.03
2022-08-12T04:44:35.531Z,101739.75
2022-08-12T04:54:36.846Z,101742.81
2022-08-12T05:04:38.089Z,101735.72
2022-08-12T05:14:39.346Z,101738.97
2022-08-12T05:24:40.617Z,101730.31
2022-08-12T05:34:41.867Z,101749.78
2022-08-12T05:44:43.166Z,101751.19
2022-08-12T05:54:57.014Z,101759.31
2022-08-12T06:05:00.026Z,101761.69
2022-08-12T06:15:02.014Z,101771.63
2022-08-12T06:25:03.545Z,101771.38
2022-08-12T06:35:22.946Z,101762.44
2022-08-12T06:45:26.419Z,101757.53
2022-08-12T06:55:58.192Z,101754.69
2022-08-12T07:06:00.083Z,101762.03
2022-08-12T07:16:01.532Z,101756.38
2022-08-12T07:26:02.848Z,101758.34
2022-08-12T07:36:04.267Z,101760.34
2022-08-12T07:46:15.910Z,101774.03
2022-08-12T07:56:17.358Z,101769.22
2022-08-12T08:06:19.955Z,101781.38
2022-08-12T08:16:27.961Z,101779.59
2022-08-12T08:26:36.239Z,101777.81
2022-08-12T08:36:40.713Z,101783.41
2022-08-12T09:07:58.770Z,101783.09
2022-08-12T09:17:52.114Z,101781.28
2022-08-12T09:38:27.928Z,101762.44
2022-08-12T09:48:35.281Z,101758.59
2022-08-12T09:58:58.320Z,101746.13
2022-08-12T10:08:58.747Z,101730.31
2022-08-12T10:19:00.111Z,101740.31
2022-08-12T10:29:02.435Z,101727.56
2022-08-12T10:40:00.320Z,101717.91
2022-08-12T10:50:02.408Z,101705.13
2022-08-12T11:00:34.706Z,101691.75
2022-08-12T11:10:09.649Z,101678.94
2022-08-12T11:20:15.453Z,101668.59
2022-08-12T11:30:31.407Z,101653.88
2022-08-12T11:40:33.350Z,101650.03
2022-08-12T11:50:34.847Z,101641.66
2022-08-12T12:11:09.467Z,101625.50
2022-08-12T12:21:10.880Z,101626.03
2022-08-12T12:31:15.066Z,101621.63
2022-08-12T12:42:44.675Z,101603.34
2022-08-12T12:52:18.571Z,101602.50
2022-08-12T13:02:31.636Z,101583.91
2022-08-12T13:12:33.298Z,101569.91
2022-08-12T13:22:40.921Z,101576.81
2022-08-12T13:32:56.756Z,101562.28
2022-08-12T13:42:59.248Z,101553.34
2022-08-12T13:53:00.594Z,101536.75
2022-08-12T14:03:07.713Z,101523.53
2022-08-12T14:13:19.494Z,101527.59
2022-08-12T14:24:04.990Z,101507.47
2022-08-12T14:33:55.875Z,101504.47
2022-08-12T14:44:04.776Z,101505.97
2022-08-12T15:04:39.954Z,101480.97
2022-08-12T15:14:46.614Z,101478.63
2022-08-12T15:24:47.938Z,101475.81
2022-08-12T15:34:49.852Z,101477.09
2022-08-12T15:44:54.772Z,101465.38
2022-08-12T15:54:58.911Z,101456.97
2022-08-12T16:05:00.438Z,101450.59
2022-08-12T16:15:02.669Z,101449.34
2022-08-12T16:25:04.020Z,101439.63
2022-08-12T16:35:06.369Z,101442.66
2022-08-12T16:45:09.581Z,101432.19
2022-08-12T16:55:15.093Z,101420.25
2022-08-12T17:05:16.396Z,101413.13
2022-08-12T17:15:51.233Z,101420.97
2022-08-12T17:25:39.019Z,101418.19
2022-08-12T17:35:43.266Z,101421.75
2022-08-12T17:45:51.151Z,101425.84
2022-08-12T17:55:52.441Z,101424.53
2022-08-12T18:05:59.668Z,101435.97
2022-08-12T18:16:05.905Z,101438.31
2022-08-12T18:26:15.204Z,101443.94
2022-08-12T18:36:22.301Z,101445.22
2022-08-12T18:46:24.243Z,101445.22
2022-08-12T18:56:33.470Z,101452.34
2022-08-12T19:06:35.691Z,101460.53
2022-08-12T19:16:39.578Z,101470.22
2022-08-12T19:26:40.884Z,101459.00
2022-08-12T19:36:42.367Z,101475.56
2022-08-12T19:46:43.736Z,101478.63
2022-08-12T19:56:54.428Z,101490.66
2022-08-12T20:06:55.687Z,101485.59
2022-08-12T20:17:01.775Z,101491.72
2022-08-12T20:27:03.432Z,101493.03
2022-08-12T20:37:11.831Z,101495.81
2022-08-12T20:47:18.167Z,101492.81
2022-08-12T20:57:21.648Z,101492.56
2022-08-12T21:07:24.170Z,101487.75
2022-08-12T21:18:00.338Z,101488.28
2022-08-12T21:27:58.522Z,101486.00
2022-08-12T21:38:02.407Z,101491.06
2022-08-12T21:48:03.700Z,101489.22
2022-08-12T21:58:08.956Z,101493.88
2022-08-12T22:08:12.042Z,101493.41
2022-08-12T22:18:14.261Z,101499.47
2022-08-12T22:28:17.369Z,101495.19
2022-08-12T22:38:25.969Z,101504.31
2022-08-12T22:48:27.239Z,101499.25
2022-08-12T22:58:28.504Z,101502.06
2022-08-12T23:08:33.413Z,101499.25
2022-08-12T23:18:34.676Z,101493.41
2022-08-12T23:28:36.008Z,101508.72
2022-08-12T23:38:37.277Z,101492.69
2022-08-12T23:48:47.782Z,101484.81
2022-08-12T23:58:51.624Z,101488.91
